Time;durP1;ratioP1;P1;durP2;ratioP2;P2;SDS_P1;SDS_P2;PMS_P1;PMS_P2;Temp;Humidity;BMP_temperature;BMP_pressure;BME280_temperature;BME280_humidity;BME280_pressure;Samples;Min_cycle;Max_cycle;Signal;HPM_P1;HPM_P2
2023/09/22 00:00:41;;;;;;;28.05;14.45;;;14.10;99.90;;;;;;5072064;28;20115;-83
2023/09/22 00:03:08;;;;;;;22.65;12.70;;;14.10;99.90;;;;;;5072130;28;20044;-83
2023/09/22 00:05:35;;;;;;;24.33;13.68;;;14.20;99.90;;;;;;5072331;28;20048;-83
2023/09/22 00:08:01;;;;;;;24.58;13.52;;;14.10;99.90;;;;;;5072045;28;20051;-83
2023/09/22 00:10:27;;;;;;;21.70;13.18;;;14.20;99.90;;;;;;5076990;28;20036;-84
2023/09/22 00:12:54;;;;;;;23.55;13.18;;;14.20;99.90;;;;;;5076348;28;20055;-83
2023/09/22 00:15:20;;;;;;;21.25;12.55;;;14.10;99.90;;;;;;5076093;28;20488;-83
2023/09/22 00:17:45;;;;;;;24.60;13.52;;;14.20;99.90;;;;;;5076120;28;20056;-83
2023/09/22 00:20:14;;;;;;;23.85;12.35;;;14.10;99.90;;;;;;5076158;28;20036;-83
2023/09/22 00:22:40;;;;;;;21.52;12.25;;;14.10;99.90;;;;;;5075904;28;20052;-83
2023/09/22 00:25:06;;;;;;;19.10;11.38;;;14.10;99.90;;;;;;5076016;28;20082;-83
2023/09/22 00:27:32;;;;;;;20.05;11.18;;;14.10;99.90;;;;;;5075759;28;20071;-83
2023/09/22 00:29:57;;;;;;;20.50;10.52;;;14.10;99.90;;;;;;5075880;28;20089;-83
2023/09/22 00:32:23;;;;;;;19.17;10.40;;;14.10;99.90;;;;;;5075570;28;20127;-83
2023/09/22 00:34:49;;;;;;;18.00;10.90;;;14.10;99.90;;;;;;5075609;28;20059;-83
2023/09/22 00:37:14;;;;;;;19.80;10.07;;;14.10;99.90;;;;;;5076802;28;20043;-83
2023/09/22 00:39:40;;;;;;;19.75;9.60;;;14.10;99.90;;;;;;5075578;28;20048;-83
2023/09/22 00:42:09;;;;;;;21.17;11.23;;;14.10;99.90;;;;;;5075346;28;20055;-83
2023/09/22 00:44:35;;;;;;;18.00;9.55;;;14.10;99.90;;;;;;5075810;28;20045;-83
2023/09/22 00:47:03;;;;;;;18.25;9.52;;;14.20;99.90;;;;;;5075389;28;20048;-83
2023/09/22 00:49:31;;;;;;;15.75;9.27;;;14.10;99.90;;;;;;5075625;28;20045;-83
2023/09/22 00:51:58;;;;;;;18.88;10.00;;;14.10;99.90;;;;;;5075249;28;20481;-83
2023/09/22 00:54:24;;;;;;;15.75;8.93;;;14.20;99.90;;;;;;5075437;28;20049;-83
2023/09/22 00:56:51;;;;;;;21.38;10.00;;;14.20;99.90;;;;;;5075063;28;20536;-82
2023/09/22 00:59:18;;;;;;;17.10;9.55;;;14.10;99.90;;;;;;5074999;28;20056;-83
2023/09/22 01:01:44;;;;;;;19.67;10.65;;;14.10;99.90;;;;;;5075312;28;20476;-83
2023/09/22 01:04:13;;;;;;;19.15;10.82;;;14.20;99.90;;;;;;5075064;28;20050;-83
2023/09/22 01:06:42;;;;;;;18.10;9.85;;;14.10;99.90;;;;;;5076393;28;20068;-83
2023/09/22 01:09:11;;;;;;;20.08;10.27;;;14.20;99.90;;;;;;5076316;28;20053;-83
2023/09/22 01:11:36;;;;;;;21.63;11.30;;;14.00;99.90;;;;;;5075180;28;20044;-83
2023/09/22 01:14:02;;;;;;;22.63;11.13;;;14.10;99.90;;;;;;5075153;28;20364;-83
2023/09/22 01:16:31;;;;;;;20.92;11.10;;;14.00;99.90;;;;;;5075158;28;20487;-83
2023/09/22 01:18:57;;;;;;;20.00;10.55;;;14.10;99.90;;;;;;5076015;28;20040;-83
2023/09/22 01:21:31;;;;;;;23.65;11.68;;;14.10;99.90;;;;;;5075591;28;20127;-83
2023/09/22 01:24:00;;;;;;;22.38;11.40;;;14.10;99.90;;;;;;5076084;28;20391;-83
2023/09/22 01:26:27;;;;;;;23.35;11.35;;;14.10;99.90;;;;;;5074815;28;20056;-83
2023/09/22 01:28:53;;;;;;;23.77;11.23;;;14.10;99.90;;;;;;5074545;28;20044;-83
2023/09/22 01:31:19;;;;;;;22.42;11.82;;;14.10;99.90;;;;;;5074559;28;20094;-83
2023/09/22 01:33:46;;;;;;;24.38;11.95;;;14.10;99.90;;;;;;5074656;28;20052;-83
2023/09/22 01:36:13;;;;;;;26.33;12.23;;;14.10;99.90;;;;;;5075884;28;20094;-83
2023/09/22 01:38:39;;;;;;;24.05;12.10;;;14.10;99.90;;;;;;5074791;28;20127;-83
2023/09/22 01:41:06;;;;;;;26.88;11.85;;;14.00;99.90;;;;;;5074265;28;20136;-83
2023/09/22 01:43:32;;;;;;;25.77;11.18;;;14.00;99.90;;;;;;5074407;28;20110;-83
2023/09/22 01:45:58;;;;;;;25.15;12.55;;;14.10;99.90;;;;;;5074354;28;20060;-83
2023/09/22 01:48:24;;;;;;;26.88;12.90;;;14.00;99.90;;;;;;5074389;28;20053;-83
2023/09/22 01:50:50;;;;;;;25.90;12.02;;;14.00;99.90;;;;;;5074201;28;20369;-83
2023/09/22 01:53:16;;;;;;;26.95;11.63;;;14.00;99.90;;;;;;5074556;28;20135;-82
2023/09/22 01:55:42;;;;;;;29.45;12.20;;;14.00;99.90;;;;;;5074355;28;20430;-83
2023/09/22 01:58:08;;;;;;;22.88;11.48;;;14.10;99.90;;;;;;5073898;28;20060;-83
2023/09/22 02:00:36;;;;;;;26.70;12.40;;;14.10;99.90;;;;;;5074100;28;20468;-83
2023/09/22 02:03:03;;;;;;;27.35;12.90;;;14.00;99.90;;;;;;5074028;28;20048;-83
2023/09/22 02:05:29;;;;;;;28.52;11.98;;;14.10;99.90;;;;;;5073941;28;20048;-83
2023/09/22 02:07:57;;;;;;;29.00;12.68;;;14.10;99.90;;;;;;5073965;28;20132;-83
2023/09/22 02:10:22;;;;;;;28.65;13.10;;;14.10;99.90;;;;;;5073813;28;20432;-83
2023/09/22 02:12:48;;;;;;;25.13;11.40;;;14.10;99.90;;;;;;5073968;28;20129;-83
2023/09/22 02:15:14;;;;;;;29.02;12.85;;;14.10;99.90;;;;;;5074964;28;20422;-83
2023/09/22 02:17:41;;;;;;;26.70;11.88;;;14.00;99.90;;;;;;5074982;28;20066;-83
2023/09/22 02:22:47;;;;;;;29.88;13.05;;;14.10;99.90;;;;;;5073706;28;20059;-83
2023/09/22 02:25:19;;;;;;;35.28;14.77;;;14.00;99.90;;;;;;5074935;28;20048;-83
2023/09/22 02:27:47;;;;;;;33.88;14.63;;;14.00;99.90;;;;;;5073515;28;20044;-83
2023/09/22 02:30:14;;;;;;;33.58;14.27;;;14.00;99.90;;;;;;5073521;28;20502;-82
2023/09/22 02:32:43;;;;;;;33.70;14.73;;;14.10;99.90;;;;;;5072892;28;20028;-82
2023/09/22 02:35:09;;;;;;;35.08;14.88;;;14.00;99.90;;;;;;5073487;28;20119;-82
2023/09/22 02:37:35;;;;;;;38.05;14.70;;;14.00;99.90;;;;;;5073210;28;20568;-82
2023/09/22 02:40:02;;;;;;;39.47;15.52;;;14.00;99.90;;;;;;5073506;28;20032;-82
2023/09/22 02:42:28;;;;;;;42.17;15.85;;;14.10;99.90;;;;;;5073238;28;20051;-82
2023/09/22 02:44:54;;;;;;;35.70;15.13;;;14.00;99.90;;;;;;5073167;28;20036;-82
2023/09/22 02:47:20;;;;;;;40.80;15.85;;;14.10;99.90;;;;;;5073082;28;20055;-82
2023/09/22 02:49:45;;;;;;;41.03;16.80;;;14.10;99.90;;;;;;5072992;28;20070;-82
2023/09/22 02:52:11;;;;;;;42.88;17.52;;;14.10;99.90;;;;;;5073284;28;20040;-82
2023/09/22 02:54:36;;;;;;;42.30;17.35;;;14.00;99.90;;;;;;5072893;28;20045;-82
2023/09/22 02:57:03;;;;;;;48.30;19.33;;;14.10;99.90;;;;;;5072735;28;20041;-82
2023/09/22 02:59:31;;;;;;;50.92;20.48;;;14.10;99.90;;;;;;5073035;28;20177;-82
2023/09/22 03:01:57;;;;;;;46.63;19.02;;;14.10;99.90;;;;;;5073223;28;20052;-82
2023/09/22 03:04:23;;;;;;;51.55;21.33;;;14.20;99.90;;;;;;5073012;28;20044;-82
2023/09/22 03:06:48;;;;;;;54.33;20.40;;;14.20;99.90;;;;;;5072734;28;20384;-82
2023/09/22 03:09:15;;;;;;;53.10;20.27;;;14.10;99.90;;;;;;5074234;28;20036;-82
2023/09/22 03:11:41;;;;;;;50.60;20.95;;;14.20;99.90;;;;;;5072709;28;20044;-82
2023/09/22 03:14:07;;;;;;;53.80;21.50;;;14.10;99.90;;;;;;5073024;28;20174;-82
2023/09/22 03:16:33;;;;;;;57.85;21.25;;;14.20;99.90;;;;;;5072978;28;20044;-82
2023/09/22 03:18:59;;;;;;;54.88;21.67;;;14.10;99.90;;;;;;5072479;28;20453;-82
2023/09/22 03:21:25;;;;;;;51.13;20.50;;;14.20;99.90;;;;;;5072431;28;20051;-82
2023/09/22 03:23:51;;;;;;;51.78;20.70;;;14.10;99.90;;;;;;5072864;28;20041;-82
2023/09/22 03:26:20;;;;;;;55.92;20.15;;;14.10;99.90;;;;;;5072889;28;20098;-82
2023/09/22 03:28:46;;;;;;;47.97;19.10;;;14.10;99.90;;;;;;5072486;28;20430;-82
2023/09/22 03:31:12;;;;;;;48.08;19.17;;;14.10;99.90;;;;;;5073821;28;20060;-83
2023/09/22 03:33:41;;;;;;;47.35;19.05;;;14.00;99.90;;;;;;5072391;28;20407;-82
2023/09/22 03:36:12;;;;;;;50.67;19.85;;;14.00;99.90;;;;;;5072351;28;20128;-82
2023/09/22 03:38:42;;;;;;;53.10;20.25;;;14.00;99.90;;;;;;5072513;28;20488;-82
2023/09/22 03:41:08;;;;;;;48.80;19.17;;;14.10;99.90;;;;;;5073725;28;20049;-82
2023/09/22 03:43:34;;;;;;;47.00;18.23;;;14.00;99.90;;;;;;5055750;28;20040;-82
2023/09/22 03:46:00;;;;;;;48.17;18.48;;;14.10;99.90;;;;;;5072456;28;20052;-82
2023/09/22 03:48:26;;;;;;;44.58;17.33;;;14.10;99.90;;;;;;5072254;28;20083;-82
2023/09/22 03:50:53;;;;;;;42.97;17.65;;;14.00;99.90;;;;;;5072411;28;20084;-83
2023/09/22 03:53:19;;;;;;;41.80;16.77;;;14.10;99.90;;;;;;5072314;28;20044;-82
2023/09/22 03:55:44;;;;;;;45.05;17.63;;;14.10;99.90;;;;;;5072115;28;20033;-83
2023/09/22 03:58:11;;;;;;;48.03;17.58;;;14.00;99.90;;;;;;5071961;28;20086;-82
2023/09/22 04:00:37;;;;;;;41.58;16.63;;;14.00;99.90;;;;;;5072032;28;20056;-83
2023/09/22 04:03:09;;;;;;;45.05;17.85;;;14.00;99.90;;;;;;5072124;28;20048;-82
2023/09/22 04:05:36;;;;;;;42.55;16.00;;;14.00;99.90;;;;;;5072497;28;20174;-83
2023/09/22 04:08:02;;;;;;;46.40;17.90;;;14.00;99.90;;;;;;5072005;28;20052;-82
2023/09/22 04:10:27;;;;;;;52.35;18.30;;;13.90;99.90;;;;;;5072111;28;20040;-82
2023/09/22 04:12:53;;;;;;;48.88;17.23;;;14.00;99.90;;;;;;5072068;28;20044;-82
2023/09/22 04:15:19;;;;;;;54.38;17.77;;;13.80;99.90;;;;;;5072129;28;20142;-82
2023/09/22 04:17:46;;;;;;;50.38;17.83;;;13.90;99.90;;;;;;5072194;28;20162;-83
2023/09/22 04:20:12;;;;;;;51.03;17.08;;;14.00;99.90;;;;;;5071962;28;20060;-83
2023/09/22 04:22:39;;;;;;;50.60;17.73;;;13.80;99.90;;;;;;5072026;28;20132;-82
2023/09/22 04:25:10;;;;;;;47.03;18.25;;;13.80;99.90;;;;;;5071976;28;20177;-82
2023/09/22 04:27:44;;;;;;;56.85;19.35;;;13.90;99.90;;;;;;5071934;28;20128;-83
2023/09/22 04:30:16;;;;;;;48.80;18.35;;;13.70;99.90;;;;;;5071836;28;20048;-83
2023/09/22 04:32:45;;;;;;;51.35;18.67;;;13.80;99.90;;;;;;5072145;28;20420;-83
2023/09/22 04:35:11;;;;;;;48.78;16.92;;;13.80;99.90;;;;;;5072160;28;20041;-83
2023/09/22 04:37:37;;;;;;;43.95;16.17;;;13.80;99.90;;;;;;5072071;28;20511;-83
2023/09/22 04:40:09;;;;;;;50.45;18.35;;;13.70;99.90;;;;;;5071646;28;20044;-83
2023/09/22 04:42:35;;;;;;;46.13;17.88;;;13.70;99.90;;;;;;5072010;28;20076;-83
2023/09/22 04:45:01;;;;;;;49.28;17.08;;;13.80;99.90;;;;;;5071980;28;20137;-83
2023/09/22 04:47:26;;;;;;;49.72;17.58;;;13.60;99.90;;;;;;5071933;28;20402;-83
2023/09/22 04:49:52;;;;;;;55.30;18.02;;;13.70;99.90;;;;;;5072915;28;20086;-83
2023/09/22 04:52:20;;;;;;;55.72;18.13;;;13.60;99.90;;;;;;5071712;28;20094;-82
2023/09/22 04:54:46;;;;;;;54.03;18.50;;;13.70;99.90;;;;;;5072430;28;20056;-83
2023/09/22 04:57:12;;;;;;;60.25;21.33;;;13.70;99.90;;;;;;5074872;28;20114;-82
2023/09/22 04:59:40;;;;;;;49.25;19.15;;;13.60;99.90;;;;;;5075272;28;20056;-83
2023/09/22 05:02:05;;;;;;;41.58;17.15;;;13.60;99.90;;;;;;5075479;28;20044;-83
2023/09/22 05:04:31;;;;;;;45.10;18.45;;;13.50;99.90;;;;;;5075222;28;20148;-83
2023/09/22 05:06:58;;;;;;;44.60;17.10;;;13.50;99.90;;;;;;5075291;28;20095;-82
2023/09/22 05:09:23;;;;;;;45.08;17.02;;;13.50;99.90;;;;;;5074872;28;20114;-82
2023/09/22 05:11:49;;;;;;;41.53;17.85;;;13.60;99.90;;;;;;5074951;28;20048;-81
2023/09/22 05:14:14;;;;;;;43.03;16.88;;;13.60;99.90;;;;;;5075016;28;20044;-83
2023/09/22 05:16:42;;;;;;;40.55;17.75;;;13.50;99.90;;;;;;5074833;28;20396;-82
2023/09/22 05:19:07;;;;;;;38.38;17.80;;;13.50;99.90;;;;;;5074800;28;20048;-83
2023/09/22 05:21:33;;;;;;;43.78;18.67;;;13.50;99.90;;;;;;5074646;28;20151;-82
2023/09/22 05:23:59;;;;;;;49.08;18.63;;;13.60;99.90;;;;;;5073479;28;20087;-83
2023/09/22 05:26:25;;;;;;;43.90;17.88;;;13.50;99.90;;;;;;5074544;28;20044;-82
2023/09/22 05:28:51;;;;;;;40.90;18.08;;;13.60;99.90;;;;;;5074648;28;20056;-82
2023/09/22 05:31:18;;;;;;;48.35;19.55;;;13.50;99.90;;;;;;5075865;28;20052;-83
2023/09/22 05:33:44;;;;;;;52.17;19.85;;;13.60;99.90;;;;;;5075646;28;20098;-83
2023/09/22 05:36:11;;;;;;;45.60;19.20;;;13.50;99.90;;;;;;5074366;28;20044;-82
2023/09/22 05:38:37;;;;;;;52.65;20.83;;;13.60;99.90;;;;;;5074323;28;20060;-82
2023/09/22 05:41:03;;;;;;;49.40;20.20;;;13.50;99.90;;;;;;5074425;28;20102;-82
2023/09/22 05:43:30;;;;;;;51.33;21.38;;;13.60;99.90;;;;;;5074411;28;20407;-82
2023/09/22 05:45:56;;;;;;;51.20;20.30;;;13.60;99.90;;;;;;5074584;28;20143;-82
2023/09/22 05:48:23;;;;;;;59.00;22.35;;;13.60;99.90;;;;;;5074064;28;20547;-82
2023/09/22 05:50:59;;;;;;;55.85;22.17;;;13.60;99.90;;;;;;5074248;28;20048;-82
2023/09/22 05:53:25;;;;;;;56.40;22.98;;;13.50;99.90;;;;;;5074120;28;20049;-82
2023/09/22 05:56:08;;;;;;;66.40;24.58;;;13.60;99.90;;;;;;5074255;28;20527;-82
2023/09/22 05:58:35;;;;;;;62.55;24.83;;;13.60;99.90;;;;;;5073836;28;20380;-82
2023/09/22 06:01:09;;;;;;;73.18;26.27;;;13.60;99.90;;;;;;5075134;28;20474;-83
2023/09/22 06:03:37;;;;;;;78.60;27.77;;;13.70;99.90;;;;;;5073891;28;20045;-82
2023/09/22 06:06:13;;;;;;;77.85;27.63;;;13.70;99.90;;;;;;5073808;28;20053;-82
2023/09/22 06:08:41;;;;;;;85.40;29.85;;;13.60;99.90;;;;;;5073696;28;20127;-81
2023/09/22 06:11:08;;;;;;;75.88;26.05;;;13.60;99.90;;;;;;5075228;28;20041;-82
2023/09/22 06:13:34;;;;;;;89.05;27.92;;;13.60;99.90;;;;;;5075116;28;20040;-81
2023/09/22 06:16:04;;;;;;;79.05;26.42;;;13.60;99.90;;;;;;5073860;28;20055;-81
2023/09/22 06:18:30;;;;;;;82.85;26.88;;;13.70;99.90;;;;;;5074895;28;20048;-81
2023/09/22 06:20:57;;;;;;;77.38;26.95;;;13.70;99.90;;;;;;5073912;28;20119;-81
2023/09/22 06:23:24;;;;;;;85.80;27.10;;;13.60;99.90;;;;;;5073436;28;20057;-81
2023/09/22 06:25:57;;;;;;;76.78;26.60;;;13.70;99.90;;;;;;5073472;28;20093;-81
2023/09/22 06:28:22;;;;;;;;;;;13.50;99.90;;;;;;5073764;28;20052;-83
2023/09/22 06:30:49;;;;;;;72.25;22.83;;;13.50;99.90;;;;;;5073556;28;19928;-82
2023/09/22 06:33:16;;;;;;;75.18;24.10;;;13.60;99.90;;;;;;5072795;28;20049;-81
2023/09/22 06:35:46;;;;;;;78.20;24.02;;;13.60;99.90;;;;;;5080540;28;20088;-80
2023/09/22 06:38:13;;;;;;;76.75;23.60;;;13.50;99.90;;;;;;5053010;28;20045;-80
2023/09/22 06:40:39;;;;;;;67.40;21.63;;;13.40;99.90;;;;;;5053115;28;20065;-78
2023/09/22 06:43:08;;;;;;;74.97;23.33;;;13.40;99.90;;;;;;5053169;28;20040;-80
2023/09/22 06:45:38;;;;;;;70.82;22.85;;;13.50;99.90;;;;;;5053151;28;20506;-81
2023/09/22 06:48:05;;;;;;;69.00;22.45;;;13.50;99.90;;;;;;5052850;28;20510;-82
2023/09/22 06:50:37;;;;;;;77.35;24.67;;;13.50;99.90;;;;;;5052766;28;20075;-81
2023/09/22 06:53:03;;;;;;;72.10;25.05;;;13.50;99.90;;;;;;5056461;28;20475;-80
2023/09/22 06:55:30;;;;;;;66.18;24.45;;;13.50;99.90;;;;;;5072652;28;20051;-80
2023/09/22 06:58:00;;;;;;;80.22;25.27;;;13.60;99.90;;;;;;5073568;28;20190;-79
2023/09/22 07:00:28;;;;;;;87.97;26.25;;;13.60;99.90;;;;;;5072455;28;20045;-80
2023/09/22 07:02:55;;;;;;;84.63;27.58;;;13.60;99.90;;;;;;5072799;28;20064;-81
2023/09/22 07:05:21;;;;;;;79.22;25.63;;;13.70;99.90;;;;;;5072476;28;20044;-80
2023/09/22 07:07:49;;;;;;;82.30;26.35;;;13.80;99.90;;;;;;5073499;28;20060;-81
2023/09/22 07:10:15;;;;;;;85.38;26.95;;;13.70;99.90;;;;;;5072415;28;20053;-79
2023/09/22 07:12:41;;;;;;;85.18;26.83;;;13.80;99.90;;;;;;5072458;28;20044;-80
2023/09/22 07:15:08;;;;;;;85.80;27.48;;;13.80;99.90;;;;;;5072264;28;20457;-81
2023/09/22 07:17:34;;;;;;;89.75;28.98;;;13.70;99.90;;;;;;5071904;28;20079;-79
2023/09/22 07:20:01;;;;;;;88.25;28.58;;;13.80;99.90;;;;;;5072416;28;20387;-80
2023/09/22 07:22:29;;;;;;;94.03;31.38;;;13.70;99.90;;;;;;5072219;28;20048;-79
2023/09/22 07:24:55;;;;;;;92.53;29.42;;;13.80;99.90;;;;;;5073734;28;20044;-78
2023/09/22 07:27:23;;;;;;;89.90;29.70;;;13.80;99.90;;;;;;5072312;28;20110;-80
2023/09/22 07:29:50;;;;;;;82.93;27.20;;;13.80;99.90;;;;;;5072458;28;20368;-79
2023/09/22 07:32:16;;;;;;;75.68;26.73;;;13.70;99.90;;;;;;5072198;28;20040;-79
2023/09/22 07:34:42;;;;;;;88.35;29.27;;;13.70;99.90;;;;;;5072265;28;20056;-79
2023/09/22 07:37:11;;;;;;;88.70;28.42;;;13.80;99.90;;;;;;5072000;28;20051;-78
2023/09/22 07:39:38;;;;;;;88.63;28.60;;;13.70;99.90;;;;;;5072045;28;20072;-78
2023/09/22 07:42:09;;;;;;;82.80;27.63;;;13.70;99.90;;;;;;5071955;28;20048;-78
2023/09/22 07:44:37;;;;;;;90.80;29.60;;;13.70;99.90;;;;;;5073307;28;20124;-79
2023/09/22 07:47:10;;;;;;;81.05;27.55;;;13.80;99.90;;;;;;5071960;28;20044;-78
2023/09/22 07:49:37;;;;;;;97.03;29.63;;;13.70;99.90;;;;;;5072227;28;20056;-79
2023/09/22 07:52:03;;;;;;;84.25;26.77;;;13.80;99.90;;;;;;5072299;28;20518;-79
2023/09/22 07:54:33;;;;;;;83.68;27.48;;;13.70;99.90;;;;;;5073521;28;20049;-79
2023/09/22 07:56:59;;;;;;;81.63;27.83;;;13.80;99.90;;;;;;5073145;28;20052;-79
2023/09/22 07:59:25;;;;;;;79.18;27.17;;;13.80;99.90;;;;;;5071840;28;20052;-79
2023/09/22 08:01:50;;;;;;;70.03;25.52;;;13.80;99.90;;;;;;5063877;28;20055;-78
2023/09/22 08:04:16;;;;;;;69.45;26.23;;;13.80;99.90;;;;;;5051731;28;20476;-78
2023/09/22 08:06:43;;;;;;;75.80;25.23;;;13.80;99.90;;;;;;5051700;28;20059;-78
2023/09/22 08:09:10;;;;;;;74.45;26.02;;;13.80;99.90;;;;;;5052810;28;20388;-78
2023/09/22 08:11:38;;;;;;;82.68;26.23;;;13.80;99.90;;;;;;5051685;28;20045;-78
2023/09/22 08:14:04;;;;;;;85.68;27.33;;;13.80;99.90;;;;;;5052841;28;20098;-79
2023/09/22 08:16:29;;;;;;;71.03;24.15;;;14.00;99.90;;;;;;5052679;28;20052;-77
2023/09/22 08:18:55;;;;;;;72.63;23.02;;;14.00;99.90;;;;;;5051851;28;20102;-78
2023/09/22 08:21:21;;;;;;;62.83;21.77;;;14.00;99.90;;;;;;5051448;28;20080;-78
2023/09/22 08:23:48;;;;;;;68.28;21.67;;;14.00;99.90;;;;;;5051563;28;20049;-78
2023/09/22 08:26:17;;;;;;;57.97;22.40;;;14.10;99.90;;;;;;5051742;28;20477;-78
2023/09/22 08:28:47;;;;;;;49.80;21.25;;;14.10;99.90;;;;;;5051515;28;20068;-78
2023/09/22 08:31:13;;;;;;;62.22;22.00;;;14.10;99.90;;;;;;5054319;28;20550;-78
2023/09/22 08:33:40;;;;;;;61.00;22.80;;;14.30;99.90;;;;;;5055333;28;20076;-78
2023/09/22 08:36:06;;;;;;;57.38;21.33;;;14.40;99.90;;;;;;5055628;28;20045;-77
2023/09/22 08:38:32;;;;;;;58.42;21.35;;;14.40;99.90;;;;;;5056547;28;20045;-77
2023/09/22 08:41:04;;;;;;;56.45;19.95;;;14.50;99.90;;;;;;5055362;28;20051;-77
2023/09/22 08:43:32;;;;;;;57.07;22.83;;;14.60;99.90;;;;;;5055173;28;20048;-78
2023/09/22 08:46:00;;;;;;;59.25;20.60;;;14.60;99.90;;;;;;5069867;28;20289;-78
2023/09/22 08:48:26;;;;;;;52.95;20.52;;;14.70;99.90;;;;;;5074995;28;20510;-77
2023/09/22 08:50:51;;;;;;;51.75;20.90;;;14.70;99.90;;;;;;5076282;28;20044;-78
2023/09/22 08:53:17;;;;;;;44.53;19.48;;;14.60;99.90;;;;;;5076191;28;20109;-78
2023/09/22 08:55:43;;;;;;;39.92;17.92;;;14.80;99.90;;;;;;5075206;28;20029;-78
2023/09/22 08:58:09;;;;;;;49.72;17.92;;;14.80;99.90;;;;;;5075532;28;20157;-78
2023/09/22 09:00:38;;;;;;;48.67;18.17;;;14.90;99.90;;;;;;5076093;28;20052;-78
2023/09/22 09:03:10;;;;;;;38.33;16.33;;;15.00;99.90;;;;;;5076231;28;20044;-79
2023/09/22 09:05:39;;;;;;;42.90;16.38;;;15.00;99.90;;;;;;5076098;28;20048;-77
2023/09/22 09:08:12;;;;;;;38.78;16.02;;;15.10;99.90;;;;;;5074503;28;20178;-77
2023/09/22 09:10:39;;;;;;;38.45;16.20;;;15.10;99.90;;;;;;5075895;28;20062;-78
2023/09/22 09:13:06;;;;;;;34.03;15.25;;;15.10;99.90;;;;;;5074804;28;20059;-79
2023/09/22 09:15:50;;;;;;;33.33;14.65;;;15.20;99.90;;;;;;5074786;28;20041;-78
2023/09/22 09:18:18;;;;;;;34.70;14.80;;;15.10;99.90;;;;;;5074446;28;20037;-78
2023/09/22 09:20:45;;;;;;;34.63;13.27;;;15.10;99.90;;;;;;5074435;28;20052;-78
2023/09/22 09:23:17;;;;;;;33.13;14.20;;;15.10;99.90;;;;;;5074536;28;20052;-77
2023/09/22 09:25:50;;;;;;;30.33;13.85;;;15.10;99.90;;;;;;5075889;28;20044;-77
2023/09/22 09:28:17;;;;;;;32.25;13.45;;;15.00;99.90;;;;;;5074436;28;20051;-78
2023/09/22 09:30:57;;;;;;;31.50;14.45;;;15.00;99.90;;;;;;5074495;28;20147;-77
2023/09/22 09:33:30;;;;;;;32.08;15.05;;;15.00;99.90;;;;;;5074231;28;20052;-78
2023/09/22 09:35:56;;;;;;;27.48;14.05;;;15.00;99.90;;;;;;5075513;28;20498;-78
2023/09/22 09:38:27;;;;;;;31.67;13.80;;;15.10;99.90;;;;;;5075665;28;20048;-78
2023/09/22 09:40:57;;;;;;;34.05;14.35;;;15.00;99.90;;;;;;5073992;28;20122;-77
2023/09/22 09:43:22;;;;;;;25.08;12.77;;;15.20;99.90;;;;;;5074116;28;20041;-77
2023/09/22 09:45:49;;;;;;;27.23;12.85;;;15.20;99.90;;;;;;5074162;28;20044;-78
2023/09/22 09:48:19;;;;;;;26.80;13.13;;;15.20;99.90;;;;;;5075502;28;20075;-78
2023/09/22 09:50:51;;;;;;;23.42;12.10;;;15.30;99.90;;;;;;5074866;28;20051;-78
2023/09/22 09:53:44;;;;;;;23.58;12.05;;;15.40;99.90;;;;;;5075453;28;20133;-77
2023/09/22 09:56:14;;;;;;;23.73;11.60;;;15.50;99.90;;;;;;5075390;28;20048;-78
2023/09/22 09:58:42;;;;;;;26.80;12.98;;;15.60;99.90;;;;;;5073550;28;20065;-78
2023/09/22 10:01:08;;;;;;;24.15;11.55;;;15.70;99.90;;;;;;5073642;28;20045;-79
2023/09/22 10:03:36;;;;;;;18.52;11.07;;;15.70;99.90;;;;;;5073595;28;20059;-78
2023/09/22 10:06:03;;;;;;;24.73;11.20;;;15.80;99.90;;;;;;5073665;28;20051;-80
2023/09/22 10:08:29;;;;;;;20.13;10.70;;;16.00;99.90;;;;;;5074794;28;20484;-78
2023/09/22 10:11:00;;;;;;;16.52;9.68;;;16.00;99.90;;;;;;5073430;28;20103;-78
2023/09/22 10:13:27;;;;;;;23.55;12.07;;;16.00;99.90;;;;;;5073549;28;20078;-80
2023/09/22 10:16:05;;;;;;;22.85;11.63;;;16.00;99.90;;;;;;5074887;28;20047;-79
2023/09/22 10:18:51;;;;;;;20.42;10.52;;;16.10;99.90;;;;;;5073587;28;20048;-78
2023/09/22 10:21:29;;;;;;;23.83;11.60;;;16.20;99.90;;;;;;5074773;28;20162;-78
2023/09/22 10:24:24;;;;;;;22.92;10.68;;;16.20;99.90;;;;;;5073246;28;20129;-78
2023/09/22 10:26:55;;;;;;;15.55;9.07;;;16.30;99.90;;;;;;5074699;28;20052;-79
2023/09/22 10:29:34;;;;;;;15.27;8.25;;;16.40;99.90;;;;;;5073081;28;20044;-77
2023/09/22 10:32:18;;;;;;;16.98;7.97;;;16.50;99.90;;;;;;5073035;28;20489;-78
2023/09/22 10:35:06;;;;;;;13.88;7.57;;;16.60;99.90;;;;;;5073012;28;20056;-78
2023/09/22 10:37:36;;;;;;;10.27;6.35;;;16.70;99.90;;;;;;5073073;28;20098;-78
2023/09/22 10:40:16;;;;;;;8.30;4.75;;;16.60;99.90;;;;;;5073034;28;20494;-79
2023/09/22 10:42:48;;;;;;;10.27;5.30;;;16.70;99.90;;;;;;5073503;28;20124;-79
2023/09/22 10:45:17;;;;;;;11.98;5.60;;;16.80;99.90;;;;;;5073252;28;20127;-78
2023/09/22 10:47:51;;;;;;;10.70;5.18;;;16.90;99.90;;;;;;5072730;28;20051;-78
2023/09/22 10:50:31;;;;;;;12.35;6.90;;;17.00;99.90;;;;;;5072857;28;20131;-78
2023/09/22 10:53:01;;;;;;;10.52;7.05;;;17.20;99.90;;;;;;5072256;28;20131;-78
2023/09/22 10:55:36;;;;;;;20.10;7.45;;;17.10;99.90;;;;;;5072759;28;20119;-78
2023/09/22 10:58:06;;;;;;;10.07;6.68;;;17.10;99.90;;;;;;5072710;28;20396;-79
2023/09/22 11:00:35;;;;;;;12.55;7.60;;;17.20;99.90;;;;;;5072782;28;20056;-79
2023/09/22 11:03:09;;;;;;;9.77;7.13;;;17.20;99.90;;;;;;5073828;28;20037;-79
2023/09/22 11:05:39;;;;;;;10.30;6.60;;;17.30;99.90;;;;;;5072617;28;20121;-78
2023/09/22 11:08:15;;;;;;;11.98;6.85;;;17.10;99.90;;;;;;5073154;28;20411;-79
2023/09/22 11:10:43;;;;;;;12.02;6.22;;;17.20;99.90;;;;;;5074021;28;20047;-79
2023/09/22 11:13:09;;;;;;;13.25;6.35;;;17.30;99.90;;;;;;5073767;28;20056;-78
2023/09/22 11:15:46;;;;;;;15.25;6.40;;;17.30;99.90;;;;;;5072154;28;20044;-78
2023/09/22 11:18:20;;;;;;;11.20;5.60;;;17.20;99.90;;;;;;5072738;28;20044;-78
2023/09/22 11:20:45;;;;;;;9.30;6.32;;;17.20;99.90;;;;;;5072747;28;20476;-79
2023/09/22 11:23:11;;;;;;;11.00;6.40;;;17.10;99.90;;;;;;5073641;28;20040;-78
2023/09/22 11:25:37;;;;;;;8.43;5.78;;;17.00;99.90;;;;;;5073716;28;20045;-79
2023/09/22 11:28:03;;;;;;;11.48;7.03;;;17.00;99.90;;;;;;5073427;28;20045;-79
2023/09/22 11:30:29;;;;;;;12.68;6.53;;;16.90;99.90;;;;;;5072312;28;20057;-79
2023/09/22 11:32:57;;;;;;;9.63;6.75;;;16.80;99.90;;;;;;5072404;28;20119;-78
2023/09/22 11:35:41;;;;;;;12.82;7.10;;;17.00;99.90;;;;;;5073525;28;20041;-78
2023/09/22 11:38:29;;;;;;;11.75;6.57;;;17.00;99.90;;;;;;5072467;28;20541;-78
2023/09/22 11:41:18;;;;;;;9.60;6.53;;;17.20;99.90;;;;;;5072169;28;20102;-79
2023/09/22 11:43:48;;;;;;;11.18;6.63;;;17.20;99.90;;;;;;5073472;28;20048;-78
2023/09/22 11:46:27;;;;;;;12.13;6.50;;;17.30;99.90;;;;;;5072380;28;20083;-78
2023/09/22 11:49:07;;;;;;;8.77;5.97;;;17.30;99.90;;;;;;5071961;28;20048;-79
2023/09/22 11:51:52;;;;;;;12.07;6.05;;;17.20;99.90;;;;;;5072000;28;20048;-78
2023/09/22 11:54:23;;;;;;;8.43;5.93;;;17.10;99.90;;;;;;5073519;28;20041;-78
2023/09/22 11:56:50;;;;;;;9.45;6.22;;;17.00;99.90;;;;;;5072237;28;20127;-78
2023/09/22 11:59:19;;;;;;;13.13;6.35;;;17.00;99.90;;;;;;5071822;28;20053;-78
2023/09/22 12:01:46;;;;;;;9.38;6.00;;;17.10;99.90;;;;;;5071857;28;20058;-78
2023/09/22 12:04:13;;;;;;;7.50;5.30;;;17.20;99.90;;;;;;5073343;28;20123;-78
2023/09/22 12:06:42;;;;;;;9.57;5.60;;;17.20;99.90;;;;;;5076177;28;20114;-78
2023/09/22 12:09:10;;;;;;;10.00;5.10;;;17.30;99.90;;;;;;5075895;28;20135;-79
2023/09/22 12:11:39;;;;;;;7.82;4.75;;;17.40;99.90;;;;;;5076035;28;20046;-78
2023/09/22 12:14:05;;;;;;;8.30;5.43;;;17.40;99.90;;;;;;5076062;28;20123;-79
2023/09/22 12:16:31;;;;;;;8.93;5.72;;;17.30;99.90;;;;;;5075769;28;20059;-78
2023/09/22 12:18:58;;;;;;;8.20;4.65;;;17.30;99.90;;;;;;5077012;28;20363;-78
2023/09/22 12:21:25;;;;;;;8.73;4.43;;;17.30;99.90;;;;;;5075750;28;20380;-78
2023/09/22 12:23:51;;;;;;;6.55;4.55;;;17.30;99.90;;;;;;5075906;28;20049;-78
2023/09/22 12:26:17;;;;;;;8.77;4.18;;;17.20;99.90;;;;;;5075909;28;20053;-79
2023/09/22 12:28:43;;;;;;;7.15;4.25;;;17.00;99.90;;;;;;5075661;28;20056;-78
2023/09/22 12:31:09;;;;;;;6.75;4.00;;;17.10;99.90;;;;;;5075694;28;20048;-78
2023/09/22 12:33:37;;;;;;;7.22;4.07;;;17.00;99.90;;;;;;5075499;28;20045;-79
2023/09/22 12:36:02;;;;;;;9.25;4.72;;;16.90;99.90;;;;;;5075537;28;20045;-78
2023/09/22 12:38:28;;;;;;;6.93;4.30;;;17.00;99.90;;;;;;5076870;28;20052;-79